Time;durP1;ratioP1;P1;durP2;ratioP2;P2;SDS_P1;SDS_P2;PMS_P1;PMS_P2;Temp;Humidity;BMP_temperature;BMP_pressure;BME280_temperature;BME280_humidity;BME280_pressure;Samples;Min_cycle;Max_cycle;Signal;HPM_P1;HPM_P2
2022/08/04 00:00:17;;;;;;;3.78;2.45;;;23.70;96.60;;;;;;5063470;28;20064;-72
2022/08/04 00:03:04;;;;;;;3.70;2.25;;;23.70;96.70;;;;;;5079232;28;20063;-72
2022/08/04 00:05:59;;;;;;;3.55;2.33;;;23.70;96.80;;;;;;5067403;28;20020;-72
2022/08/04 00:08:45;;;;;;;4.30;2.30;;;23.60;96.90;;;;;;5054867;28;20033;-72
2022/08/04 00:11:14;;;;;;;6.53;2.50;;;23.60;97.00;;;;;;5073691;28;20037;-72
2022/08/04 00:13:46;;;;;;;5.75;2.50;;;23.50;97.20;;;;;;5073791;28;20025;-72
2022/08/04 00:16:13;;;;;;;4.68;2.83;;;23.40;97.40;;;;;;5073829;28;20032;-72
2022/08/04 00:18:41;;;;;;;5.03;2.30;;;23.50;97.40;;;;;;5061845;28;20096;-72
2022/08/04 00:21:10;;;;;;;3.55;1.95;;;23.50;97.50;;;;;;5052129;28;20542;-72
2022/08/04 00:23:38;;;;;;;5.38;2.83;;;23.30;97.60;;;;;;5071988;28;20017;-72
2022/08/04 00:26:04;;;;;;;3.10;1.95;;;23.20;97.60;;;;;;5073521;28;20033;-72
2022/08/04 00:28:30;;;;;;;4.68;2.45;;;23.30;97.70;;;;;;5073489;28;20536;-72
2022/08/04 00:30:56;;;;;;;3.92;2.28;;;23.30;97.50;;;;;;5073445;28;20060;-72
2022/08/04 00:33:21;;;;;;;6.13;2.70;;;23.30;97.70;;;;;;5073301;28;20486;-72
2022/08/04 00:35:48;;;;;;;5.60;2.20;;;23.50;97.40;;;;;;5073411;28;20032;-72
2022/08/04 00:38:16;;;;;;;4.13;2.22;;;23.50;97.30;;;;;;5073228;28;20032;-72
2022/08/04 00:40:54;;;;;;;4.00;2.53;;;23.50;97.30;;;;;;5072965;28;20469;-72
2022/08/04 00:43:28;;;;;;;5.70;2.20;;;23.40;97.50;;;;;;5072731;28;20054;-72
2022/08/04 00:46:12;;;;;;;5.72;2.38;;;23.40;97.60;;;;;;5073001;28;20052;-72
2022/08/04 00:49:01;;;;;;;5.53;1.90;;;23.30;97.60;;;;;;5073421;28;20035;-72
2022/08/04 00:51:33;;;;;;;3.20;1.90;;;23.30;97.70;;;;;;5059935;28;20028;-72
2022/08/04 00:54:25;;;;;;;3.55;2.08;;;23.30;97.70;;;;;;5052026;28;20467;-72
2022/08/04 00:57:10;;;;;;;9.48;2.58;;;23.30;97.80;;;;;;5053507;28;20090;-72
2022/08/04 00:59:54;;;;;;;4.15;2.30;;;23.30;97.90;;;;;;5053025;28;20426;-72
2022/08/04 01:02:26;;;;;;;;;;;23.30;97.80;;;;;;5052990;28;20475;-72
2022/08/04 01:05:20;;;;;;;5.38;2.58;;;23.30;97.90;;;;;;5050069;28;19918;-73
2022/08/04 01:07:52;;;;;;;3.92;2.45;;;23.30;98.00;;;;;;5045619;28;20071;-72
2022/08/04 01:10:36;;;;;;;4.75;2.70;;;23.20;98.00;;;;;;5051399;28;20032;-73
2022/08/04 01:13:33;;;;;;;3.97;2.28;;;23.30;97.80;;;;;;5060312;28;20552;-73
2022/08/04 01:16:06;;;;;;;4.03;1.95;;;23.30;97.80;;;;;;5055047;28;20025;-73
2022/08/04 01:18:58;;;;;;;6.75;2.63;;;23.30;98.00;;;;;;5050933;28;20557;-73
2022/08/04 01:21:32;;;;;;;4.10;1.98;;;23.30;98.10;;;;;;5048984;28;20102;-72
2022/08/04 01:24:25;;;;;;;5.63;2.20;;;23.20;98.20;;;;;;5050273;28;20151;-72
2022/08/04 01:27:02;;;;;;;4.53;2.30;;;23.30;98.20;;;;;;5052129;28;20063;-73
2022/08/04 01:29:42;;;;;;;4.03;2.22;;;23.30;98.00;;;;;;5050828;28;20037;-72
2022/08/04 01:32:24;;;;;;;6.10;2.70;;;23.10;98.30;;;;;;5051833;28;20390;-72
2022/08/04 01:35:01;;;;;;;4.20;1.95;;;23.10;98.50;;;;;;5050752;28;20101;-73
2022/08/04 01:38:08;;;;;;;4.85;2.42;;;23.10;98.40;;;;;;5050945;28;20025;-72
2022/08/04 01:40:36;;;;;;;4.63;2.28;;;23.10;98.50;;;;;;5043994;28;20099;-72
2022/08/04 01:43:03;;;;;;;5.25;2.72;;;23.10;98.60;;;;;;5049835;28;20174;-72
2022/08/04 01:45:30;;;;;;;3.83;2.33;;;23.00;98.60;;;;;;5050878;28;20134;-72
2022/08/04 01:47:56;;;;;;;7.13;2.60;;;23.00;98.70;;;;;;5050276;28;20021;-72
2022/08/04 01:50:23;;;;;;;4.78;2.53;;;22.90;98.90;;;;;;5047061;28;20037;-72
2022/08/04 01:53:08;;;;;;;3.97;2.33;;;22.90;99.30;;;;;;5050449;28;20378;-72
2022/08/04 01:55:35;;;;;;;3.53;2.17;;;22.90;99.20;;;;;;5048899;28;20039;-72
2022/08/04 01:58:04;;;;;;;6.22;2.70;;;22.90;99.20;;;;;;5050677;28;20020;-72
2022/08/04 02:00:29;;;;;;;3.17;2.05;;;22.90;99.30;;;;;;5047085;28;20487;-72
2022/08/04 02:02:56;;;;;;;4.03;2.60;;;23.00;99.20;;;;;;5051712;28;20036;-73
2022/08/04 02:05:24;;;;;;;3.55;2.35;;;23.00;99.10;;;;;;5051184;28;20037;-72
2022/08/04 02:08:03;;;;;;;3.60;2.30;;;23.10;99.10;;;;;;5049991;28;20436;-72
2022/08/04 02:10:48;;;;;;;6.28;2.95;;;23.10;99.10;;;;;;5049542;28;20040;-73
2022/08/04 02:13:23;;;;;;;3.97;2.60;;;23.10;99.00;;;;;;5050290;28;20086;-72
2022/08/04 02:16:00;;;;;;;5.60;2.28;;;23.20;99.00;;;;;;5049808;28;20508;-72
2022/08/04 02:18:53;;;;;;;4.43;2.75;;;23.20;99.00;;;;;;5049979;28;20032;-72
2022/08/04 02:21:22;;;;;;;7.03;2.40;;;23.20;98.80;;;;;;5049782;28;20029;-72
2022/08/04 02:23:58;;;;;;;3.88;2.80;;;23.20;98.80;;;;;;5048714;28;20483;-72
2022/08/04 02:26:27;;;;;;;5.38;2.63;;;23.20;98.90;;;;;;5051117;28;20139;-72
2022/08/04 02:29:02;;;;;;;5.05;2.50;;;23.10;99.10;;;;;;5053166;28;20037;-72
2022/08/04 02:31:38;;;;;;;4.00;2.63;;;23.10;99.20;;;;;;5053033;28;20032;-72
2022/08/04 02:34:14;;;;;;;5.63;2.53;;;23.10;99.20;;;;;;5052863;28;20549;-72
2022/08/04 02:36:41;;;;;;;4.43;2.35;;;23.10;99.20;;;;;;5052043;28;20025;-72
2022/08/04 02:39:10;;;;;;;4.63;2.67;;;22.90;99.60;;;;;;5053597;28;20052;-72
2022/08/04 02:41:38;;;;;;;4.13;2.20;;;22.80;99.70;;;;;;5053238;28;20035;-72
2022/08/04 02:44:07;;;;;;;4.43;2.75;;;22.80;99.70;;;;;;5052084;28;20035;-72
2022/08/04 02:46:34;;;;;;;3.72;2.65;;;22.80;99.70;;;;;;5053835;28;20036;-72
2022/08/04 02:49:08;;;;;;;4.68;2.30;;;22.80;99.70;;;;;;5053876;28;20482;-72
2022/08/04 02:51:35;;;;;;;;;;;22.90;99.60;;;;;;5053508;28;20115;-72
2022/08/04 02:54:04;;;;;;;4.55;2.80;;;22.80;99.80;;;;;;5051826;28;20008;-72
2022/08/04 02:56:31;;;;;;;4.40;2.22;;;22.80;99.90;;;;;;5053903;28;20140;-72
2022/08/04 02:59:04;;;;;;;3.97;2.50;;;22.60;99.90;;;;;;5053581;28;20408;-72
2022/08/04 03:01:30;;;;;;;8.18;3.08;;;22.40;99.90;;;;;;5054722;28;20431;-72
2022/08/04 03:04:11;;;;;;;4.15;2.50;;;22.40;99.90;;;;;;5048851;28;20048;-71
2022/08/04 03:06:43;;;;;;;5.25;2.88;;;22.40;99.90;;;;;;5045627;28;20025;-72
2022/08/04 03:09:30;;;;;;;4.50;2.45;;;22.50;99.90;;;;;;5046816;28;20059;-72
2022/08/04 03:12:23;;;;;;;7.35;2.75;;;22.70;99.90;;;;;;5047139;28;20037;-72
2022/08/04 03:14:58;;;;;;;4.00;2.50;;;22.70;99.90;;;;;;5045480;28;20025;-71
2022/08/04 03:17:57;;;;;;;4.00;2.40;;;22.60;99.90;;;;;;5045384;28;20032;-71
2022/08/04 03:20:48;;;;;;;5.05;2.80;;;22.40;99.90;;;;;;5044451;28;20025;-71
2022/08/04 03:23:32;;;;;;;4.22;2.47;;;22.40;99.90;;;;;;5044724;28;20037;-71
2022/08/04 03:26:17;;;;;;;;;;;22.40;99.90;;;;;;5045772;28;20024;-71
2022/08/04 03:29:17;;;;;;;4.35;2.95;;;22.30;99.90;;;;;;5044764;28;19908;-71
2022/08/04 03:31:51;;;;;;;4.38;2.72;;;22.20;99.90;;;;;;5046648;28;20483;-71
2022/08/04 03:34:45;;;;;;;4.47;2.85;;;22.10;99.90;;;;;;5047074;28;20521;-71
2022/08/04 03:37:29;;;;;;;4.75;2.63;;;22.00;99.90;;;;;;5048457;28;20033;-71
2022/08/04 03:40:13;;;;;;;;;;;21.90;99.90;;;;;;5047633;28;20449;-71
2022/08/04 03:43:10;;;;;;;5.40;2.75;;;21.70;99.90;;;;;;5046911;28;19915;-71
2022/08/04 03:45:57;;;;;;;4.82;2.70;;;21.70;99.90;;;;;;5046548;28;20048;-71
2022/08/04 03:48:51;;;;;;;3.67;2.35;;;21.60;99.90;;;;;;5047667;28;20474;-71
2022/08/04 03:54:43;;;;;;;3.95;2.40;;;21.80;99.90;;;;;;5046499;28;20121;-71
2022/08/04 03:57:38;;;;;;;5.45;3.60;;;21.90;99.90;;;;;;5045861;28;20021;-71
2022/08/04 04:00:17;;;;;;;6.03;2.95;;;22.00;99.90;;;;;;5042127;28;20775;-71
2022/08/04 04:02:54;;;;;;;5.93;2.75;;;22.20;99.90;;;;;;5043625;28;20190;-71
2022/08/04 04:06:04;;;;;;;5.13;2.85;;;22.10;99.90;;;;;;5044592;28;20037;-72
2022/08/04 04:08:46;;;;;;;5.82;2.67;;;22.00;99.90;;;;;;5048768;28;20031;-72
2022/08/04 04:11:27;;;;;;;4.35;2.60;;;21.90;99.90;;;;;;5046440;28;20124;-71
2022/08/04 04:14:11;;;;;;;7.10;2.80;;;22.00;99.90;;;;;;5044770;28;20028;-72
2022/08/04 04:16:57;;;;;;;4.13;2.85;;;21.90;99.90;;;;;;5048318;28;20437;-71
2022/08/04 04:19:29;;;;;;;3.70;2.38;;;21.80;99.90;;;;;;5046878;28;20033;-71
2022/08/04 04:22:00;;;;;;;6.00;2.80;;;21.70;99.90;;;;;;5047909;28;20067;-71
2022/08/04 04:24:49;;;;;;;4.90;2.83;;;21.60;99.90;;;;;;5053331;28;20046;-71
2022/08/04 04:27:20;;;;;;;5.30;2.60;;;21.60;99.90;;;;;;5043960;28;20040;-71
2022/08/04 04:30:22;;;;;;;5.50;2.53;;;21.50;99.90;;;;;;5046273;28;20510;-71
2022/08/04 04:33:14;;;;;;;7.40;2.92;;;21.20;99.90;;;;;;5036057;28;20479;-73
2022/08/04 04:36:07;;;;;;;4.45;2.60;;;21.50;99.90;;;;;;5050911;28;20560;-72
2022/08/04 04:38:38;;;;;;;5.80;2.72;;;21.50;99.90;;;;;;5049442;28;20497;-72
2022/08/04 04:41:16;;;;;;;4.00;2.58;;;21.60;99.90;;;;;;5048127;28;20699;-72
2022/08/04 04:43:57;;;;;;;5.20;2.80;;;21.50;99.90;;;;;;5047905;28;20021;-72
2022/08/04 04:46:34;;;;;;;5.13;2.90;;;21.40;99.90;;;;;;5047548;28;20078;-72
2022/08/04 04:49:13;;;;;;;4.40;2.70;;;21.20;99.90;;;;;;5045380;28;20021;-72
2022/08/04 04:51:59;;;;;;;4.57;2.47;;;21.40;99.90;;;;;;5045124;28;20047;-72
2022/08/04 04:54:37;;;;;;;5.30;2.85;;;21.40;99.90;;;;;;5058290;28;20518;-72
2022/08/04 04:57:10;;;;;;;7.72;3.28;;;21.40;99.90;;;;;;5051184;28;20128;-72
2022/08/04 04:59:43;;;;;;;5.22;3.13;;;21.60;99.90;;;;;;5049171;28;21028;-72
2022/08/04 05:02:24;;;;;;;3.93;2.77;;;21.70;99.90;;;;;;5049656;28;20390;-73
2022/08/04 05:05:01;;;;;;;4.30;2.67;;;21.60;99.90;;;;;;5047326;28;20183;-72
2022/08/04 05:07:33;;;;;;;4.28;2.80;;;21.70;99.90;;;;;;5050127;28;20032;-72
2022/08/04 05:10:29;;;;;;;4.47;2.80;;;21.50;99.90;;;;;;5053742;28;20043;-72
2022/08/04 05:13:13;;;;;;;4.18;2.85;;;21.50;99.90;;;;;;5050282;28;20542;-72
2022/08/04 05:15:42;;;;;;;4.55;2.80;;;21.50;99.90;;;;;;5044837;28;20021;-72
2022/08/04 05:18:14;;;;;;;4.32;2.83;;;21.50;99.90;;;;;;5048627;28;20112;-73
2022/08/04 05:20:50;;;;;;;4.38;2.60;;;21.40;99.90;;;;;;5044844;28;20075;-73
2022/08/04 05:23:28;;;;;;;7.70;3.97;;;21.60;99.90;;;;;;5046003;28;20056;-72
2022/08/04 05:26:01;;;;;;;5.10;2.75;;;21.60;99.90;;;;;;5051703;28;20529;-72
2022/08/04 05:28:38;;;;;;;5.45;3.28;;;21.70;99.90;;;;;;5052139;28;20116;-72
2022/08/04 05:31:14;;;;;;;4.18;2.65;;;21.70;99.90;;;;;;5045548;28;20064;-73
2022/08/04 05:34:05;;;;;;;4.40;2.95;;;21.70;99.90;;;;;;5043399;28;20035;-72
2022/08/04 05:36:46;;;;;;;4.75;2.55;;;21.70;99.90;;;;;;5044467;28;20078;-73
2022/08/04 05:39:25;;;;;;;6.32;3.28;;;21.70;99.90;;;;;;5051976;28;20029;-72
2022/08/04 05:41:51;;;;;;;5.93;3.22;;;21.80;99.90;;;;;;5045467;28;20820;-73
2022/08/04 05:44:20;;;;;;;5.35;3.13;;;21.80;99.90;;;;;;5043229;28;20426;-72
2022/08/04 05:46:49;;;;;;;7.57;3.55;;;21.80;99.90;;;;;;5045821;28;20125;-73
2022/08/04 05:49:16;;;;;;;7.00;2.92;;;21.90;99.90;;;;;;5045277;28;20138;-72
2022/08/04 05:51:44;;;;;;;4.60;2.70;;;22.10;99.90;;;;;;5043012;28;20033;-72
2022/08/04 05:54:11;;;;;;;5.47;3.38;;;22.10;99.90;;;;;;5048954;28;20115;-72
2022/08/04 05:56:37;;;;;;;4.82;3.05;;;22.20;99.90;;;;;;5053641;28;20032;-72
2022/08/04 05:59:05;;;;;;;4.32;2.97;;;22.30;99.90;;;;;;5050876;28;20029;-73
2022/08/04 06:01:31;;;;;;;5.30;3.15;;;22.30;99.90;;;;;;5048609;28;20094;-72
2022/08/04 06:04:00;;;;;;;6.38;3.60;;;22.40;99.90;;;;;;5048748;28;20029;-72
2022/08/04 06:06:28;;;;;;;9.25;3.70;;;22.40;99.90;;;;;;5052905;28;20025;-72
2022/08/04 06:08:55;;;;;;;5.28;3.22;;;22.60;99.90;;;;;;5049328;28;20041;-72
2022/08/04 06:11:23;;;;;;;5.40;3.28;;;22.50;99.90;;;;;;5045905;28;20072;-72
2022/08/04 06:14:00;;;;;;;6.43;3.45;;;22.50;99.90;;;;;;5047195;28;20044;-72
2022/08/04 06:16:31;;;;;;;4.82;3.28;;;22.50;99.90;;;;;;5045533;28;20037;-72
2022/08/04 06:19:03;;;;;;;5.95;3.92;;;22.50;99.90;;;;;;5045624;28;20025;-72
2022/08/04 06:21:30;;;;;;;4.78;3.45;;;22.70;99.90;;;;;;5046811;28;20112;-73
2022/08/04 06:23:57;;;;;;;5.15;3.42;;;22.80;99.90;;;;;;5045391;28;20033;-72
2022/08/04 06:26:24;;;;;;;5.40;3.78;;;22.90;99.90;;;;;;5044755;28;20029;-72
2022/08/04 06:28:51;;;;;;;4.38;3.20;;;23.10;99.90;;;;;;5045314;28;20033;-72
2022/08/04 06:31:42;;;;;;;6.60;3.47;;;23.20;99.90;;;;;;5047604;28;20037;-71
2022/08/04 06:34:11;;;;;;;5.43;3.90;;;23.20;99.90;;;;;;5045212;28;20033;-72
2022/08/04 06:36:39;;;;;;;5.43;3.75;;;23.20;99.90;;;;;;5048877;28;20021;-73
2022/08/04 06:39:07;;;;;;;5.88;3.97;;;23.30;99.90;;;;;;5044323;28;20117;-73
2022/08/04 06:41:33;;;;;;;6.28;3.60;;;23.40;99.90;;;;;;5047220;28;20039;-73
2022/08/04 06:44:02;;;;;;;5.50;3.58;;;23.60;99.90;;;;;;5052261;28;20116;-73
2022/08/04 06:46:29;;;;;;;5.22;3.50;;;23.70;99.90;;;;;;5043441;28;20021;-73
2022/08/04 06:48:56;;;;;;;4.82;3.50;;;23.90;99.90;;;;;;5043447;28;20036;-72
2022/08/04 06:51:22;;;;;;;7.22;3.80;;;24.10;99.90;;;;;;5054789;28;20048;-73
2022/08/04 06:53:48;;;;;;;5.93;3.67;;;24.20;99.90;;;;;;5065080;28;20127;-73
2022/08/04 06:56:17;;;;;;;5.75;3.55;;;24.30;99.90;;;;;;5047842;28;20108;-73
2022/08/04 06:58:45;;;;;;;7.85;3.70;;;24.50;99.90;;;;;;5047501;28;20029;-73
2022/08/04 07:01:13;;;;;;;4.60;2.95;;;24.70;99.10;;;;;;5054845;28;20050;-73
2022/08/04 07:03:39;;;;;;;5.10;3.70;;;25.00;99.80;;;;;;5067244;28;20024;-73
2022/08/04 07:06:06;;;;;;;8.32;3.70;;;25.20;99.00;;;;;;5053770;28;20029;-73
2022/08/04 07:08:36;;;;;;;5.45;4.00;;;25.30;98.40;;;;;;5056544;28;20027;-72
2022/08/04 07:11:04;;;;;;;8.65;4.13;;;25.30;97.30;;;;;;5048422;28;20213;-73
2022/08/04 07:13:31;;;;;;;4.15;3.10;;;25.30;97.40;;;;;;5059981;28;20029;-73
2022/08/04 07:15:58;;;;;;;8.65;3.72;;;25.50;97.90;;;;;;5047959;28;20033;-72
2022/08/04 07:18:24;;;;;;;4.40;3.33;;;25.70;98.00;;;;;;5048272;28;20059;-73
2022/08/04 07:20:50;;;;;;;5.45;3.50;;;26.20;97.00;;;;;;5047408;28;20040;-72
2022/08/04 07:23:21;;;;;;;8.05;3.55;;;27.10;96.60;;;;;;5047284;28;20051;-71
2022/08/04 07:25:55;;;;;;;4.30;2.75;;;28.00;95.10;;;;;;5047023;28;20118;-73
2022/08/04 07:28:23;;;;;;;5.53;3.30;;;29.20;93.80;;;;;;5048792;28;20040;-73
2022/08/04 07:30:49;;;;;;;4.43;3.33;;;29.80;92.50;;;;;;5047127;28;20033;-71
2022/08/04 07:33:18;;;;;;;4.38;3.17;;;30.70;91.80;;;;;;5047480;28;20032;-71
2022/08/04 07:35:57;;;;;;;4.38;3.25;;;31.20;91.50;;;;;;5049405;28;20043;-71
2022/08/04 07:38:23;;;;;;;6.68;3.17;;;31.20;91.20;;;;;;5047226;28;20490;-71
2022/08/04 07:40:49;;;;;;;5.22;3.28;;;31.50;91.00;;;;;;5046457;28;20053;-71
2022/08/04 07:43:16;;;;;;;4.47;3.17;;;31.20;90.10;;;;;;5047704;28;20093;-70
2022/08/04 07:45:42;;;;;;;5.35;3.30;;;31.20;89.60;;;;;;5045879;28;20029;-70
2022/08/04 07:48:09;;;;;;;5.30;3.28;;;31.20;90.00;;;;;;5048904;28;20112;-70
2022/08/04 07:50:37;;;;;;;7.05;3.33;;;30.90;90.60;;;;;;5057116;28;20498;-71
2022/08/04 07:53:03;;;;;;;7.07;3.10;;;30.90;90.20;;;;;;5052514;28;20074;-71
2022/08/04 07:55:29;;;;;;;8.38;3.33;;;30.50;90.30;;;;;;5075533;28;20056;-71
2022/08/04 07:57:54;;;;;;;12.88;3.83;;;30.70;90.40;;;;;;5081073;28;20029;-71
2022/08/04 08:00:20;;;;;;;4.85;3.17;;;30.40;90.40;;;;;;5071499;28;20512;-71
2022/08/04 08:02:49;;;;;;;7.63;4.18;;;28.70;91.70;;;;;;5069668;28;20035;-72
2022/08/04 08:05:18;;;;;;;5.50;3.30;;;27.60;92.70;;;;;;5069891;28;20043;-71
2022/08/04 08:07:48;;;;;;;5.18;3.55;;;27.00;93.60;;;;;;5061502;28;20428;-71
2022/08/04 08:10:14;;;;;;;4.63;3.58;;;26.90;94.40;;;;;;5055501;28;20032;-72
2022/08/04 08:12:41;;;;;;;8.98;3.95;;;26.80;94.30;;;;;;5057488;28;20025;-71
2022/08/04 08:15:09;;;;;;;5.43;3.50;;;26.80;94.10;;;;;;5053435;28;20028;-70
2022/08/04 08:17:37;;;;;;;7.25;3.40;;;26.70;94.00;;;;;;5057498;28;20025;-70
2022/08/04 08:20:03;;;;;;;9.93;4.55;;;27.20;94.70;;;;;;5045350;28;20047;-71
2022/08/04 08:22:30;;;;;;;7.00;3.83;;;28.90;93.10;;;;;;5056652;28;20197;-71
2022/08/04 08:24:56;;;;;;;5.47;3.42;;;30.20;91.60;;;;;;5053509;28;20367;-71
2022/08/04 08:27:22;;;;;;;6.97;3.80;;;30.80;91.30;;;;;;5057119;28;20025;-72
2022/08/04 08:29:48;;;;;;;6.53;3.42;;;30.50;91.60;;;;;;5049922;28;20405;-72
2022/08/04 08:32:15;;;;;;;5.50;3.80;;;31.00;91.00;;;;;;5044621;28;20139;-71
2022/08/04 08:34:43;;;;;;;8.07;3.40;;;31.00;90.60;;;;;;5043978;28;20025;-71
2022/08/04 08:37:32;;;;;;;5.38;3.30;;;30.70;90.40;;;;;;5050965;28;20028;-72
2022/08/04 08:40:06;;;;;;;4.95;3.38;;;30.20;90.80;;;;;;5048159;28;20387;-71
2022/08/04 08:43:06;;;;;;;8.65;3.83;;;29.90;91.50;;;;;;5046805;28;20040;-71
2022/08/04 08:45:55;;;;;;;5.70;3.53;;;29.50;91.80;;;;;;5045166;28;20036;-71
2022/08/04 08:48:39;;;;;;;5.78;3.50;;;29.10;92.00;;;;;;5048642;28;20142;-71
2022/08/04 08:51:46;;;;;;;6.20;3.80;;;28.90;92.00;;;;;;5047118;28;20588;-71
2022/08/04 08:54:40;;;;;;;5.72;3.95;;;28.90;92.40;;;;;;5046416;28;20102;-70
2022/08/04 08:57:54;;;;;;;4.43;3.47;;;28.20;92.20;;;;;;5034483;28;20045;-71
2022/08/04 09:00:39;;;;;;;5.57;4.10;;;28.10;92.40;;;;;;5034857;28;21478;-72
2022/08/04 09:03:29;;;;;;;5.57;3.50;;;28.30;93.30;;;;;;5045747;28;20032;-71
2022/08/04 09:06:21;;;;;;;6.53;3.63;;;28.50;92.20;;;;;;5053068;28;20127;-71
2022/08/04 09:09:21;;;;;;;5.05;3.28;;;28.60;92.30;;;;;;5048553;28;20068;-71
2022/08/04 09:11:59;;;;;;;5.30;3.58;;;28.40;92.30;;;;;;5048330;28;20032;-71
2022/08/04 09:14:40;;;;;;;4.97;3.55;;;28.30;93.80;;;;;;5049425;28;20112;-71
2022/08/04 09:17:19;;;;;;;5.63;3.58;;;28.60;93.80;;;;;;5047579;28;20036;-71
2022/08/04 09:20:04;;;;;;;5.85;3.70;;;28.40;92.30;;;;;;5043744;28;20035;-71
2022/08/04 09:22:48;;;;;;;5.70;3.15;;;28.60;92.80;;;;;;5047819;28;20150;-73
2022/08/04 09:25:27;;;;;;;4.65;3.47;;;28.80;92.30;;;;;;5045240;28;20067;-74
2022/08/04 09:28:06;;;;;;;5.82;3.78;;;28.50;92.80;;;;;;5052277;28;20513;-74
2022/08/04 09:30:42;;;;;;;6.10;4.47;;;28.80;92.30;;;;;;5052340;28;20086;-73
2022/08/04 09:33:17;;;;;;;6.78;4.22;;;29.10;92.50;;;;;;5046801;28;20119;-73
2022/08/04 09:36:15;;;;;;;5.25;3.47;;;29.00;92.30;;;;;;5044685;28;20025;-73
2022/08/04 09:38:52;;;;;;;6.00;3.80;;;29.10;92.70;;;;;;5029799;28;20036;-73
2022/08/04 09:41:35;;;;;;;6.55;3.78;;;29.30;92.70;;;;;;5049723;28;20440;-73
2022/08/04 09:44:12;;;;;;;6.03;3.38;;;29.50;92.90;;;;;;5052264;28;20100;-74
2022/08/04 09:47:16;;;;;;;10.40;3.80;;;29.50;92.80;;;;;;5054674;28;20036;-73
2022/08/04 09:50:03;;;;;;;7.40;3.92;;;29.70;92.50;;;;;;5030647;28;20486;-74
2022/08/04 09:52:38;;;;;;;5.50;3.58;;;29.70;92.00;;;;;;5048612;28;20056;-74
2022/08/04 09:55:14;;;;;;;5.10;3.38;;;29.50;91.60;;;;;;5045745;28;20036;-73
2022/08/04 09:57:59;;;;;;;5.25;3.60;;;29.60;91.00;;;;;;5055036;28;20550;-74
2022/08/04 10:00:33;;;;;;;4.15;3.17;;;29.80;91.50;;;;;;5052094;28;20032;-73
2022/08/04 10:02:59;;;;;;;;;;;30.10;92.00;;;;;;5056731;28;20036;-73
2022/08/04 10:05:59;;;;;;;6.90;2.88;;;30.10;91.00;;;;;;5046901;28;19915;-74
2022/08/04 10:08:51;;;;;;;6.60;3.55;;;30.20;90.80;;;;;;5055315;28;20033;-74
2022/08/04 10:11:53;;;;;;;5.53;3.30;;;30.10;90.90;;;;;;5035936;28;20447;-74
2022/08/04 10:14:42;;;;;;;5.22;3.20;;;30.40;91.00;;;;;;5044489;28;20486;-73
2022/08/04 10:17:18;;;;;;;5.22;3.45;;;30.50;91.10;;;;;;5052803;28;20041;-73
2022/08/04 10:22:40;;;;;;;7.03;3.42;;;30.80;90.50;;;;;;5053597;28;20033;-74
2022/08/04 10:25:12;;;;;;;6.57;3.00;;;30.80;91.50;;;;;;5071893;28;20028;-73
2022/08/04 10:27:51;;;;;;;6.72;4.43;;;30.90;91.30;;;;;;5059989;28;20044;-74
2022/08/04 10:30:19;;;;;;;6.10;3.15;;;31.00;90.30;;;;;;5048526;28;20036;-74
2022/08/04 10:32:54;;;;;;;4.35;3.13;;;30.70;90.40;;;;;;5060462;28;20107;-74
2022/08/04 10:35:25;;;;;;;5.63;3.35;;;30.80;91.20;;;;;;5056162;28;20483;-74
2022/08/04 10:38:12;;;;;;;5.80;3.50;;;31.20;91.40;;;;;;5062052;28;20040;-74
2022/08/04 10:40:56;;;;;;;7.38;3.08;;;30.90;90.60;;;;;;5051922;28;20049;-73
2022/08/04 10:43:33;;;;;;;7.13;3.20;;;31.20;90.80;;;;;;5049335;28;20043;-73
2022/08/04 10:46:49;;;;;;;6.85;3.00;;;31.00;89.80;;;;;;5054857;28;20028;-74
2022/08/04 10:49:20;;;;;;;4.22;3.05;;;30.80;89.30;;;;;;5039146;28;20037;-73
2022/08/04 10:51:51;;;;;;;5.40;3.45;;;30.80;90.50;;;;;;5048749;28;20045;-74
2022/08/04 10:54:46;;;;;;;4.13;2.80;;;31.20;90.40;;;;;;5048110;28;20037;-74
2022/08/04 10:57:16;;;;;;;5.90;3.50;;;31.30;90.20;;;;;;5047864;28;20025;-74
2022/08/04 10:59:51;;;;;;;6.40;3.00;;;31.20;90.20;;;;;;5048022;28;20387;-74
2022/08/04 11:02:35;;;;;;;5.35;3.55;;;31.20;90.90;;;;;;5052991;28;20678;-74
2022/08/04 11:05:06;;;;;;;5.03;3.30;;;31.40;91.00;;;;;;5048211;28;20884;-74
2022/08/04 11:07:36;;;;;;;5.13;3.55;;;31.40;90.50;;;;;;5048508;28;20029;-74
2022/08/04 11:10:02;;;;;;;7.38;3.38;;;31.70;91.40;;;;;;5049372;28;20064;-74
2022/08/04 11:12:29;;;;;;;6.97;3.17;;;31.60;90.30;;;;;;5046768;28;20036;-73
2022/08/04 11:15:06;;;;;;;6.07;2.97;;;31.90;90.40;;;;;;5048508;28;20045;-73
2022/08/04 11:17:36;;;;;;;5.53;3.45;;;32.00;90.40;;;;;;5045348;28;20036;-73
2022/08/04 11:20:23;;;;;;;4.72;2.72;;;31.90;91.00;;;;;;5056111;28;20517;-74
2022/08/04 11:23:14;;;;;;;5.03;2.60;;;32.00;91.00;;;;;;5053839;28;20033;-74
2022/08/04 11:25:56;;;;;;;4.60;3.00;;;32.00;90.00;;;;;;5056468;28;20107;-73
2022/08/04 11:28:28;;;;;;;6.10;3.20;;;31.60;90.90;;;;;;5055621;28;20036;-74
2022/08/04 11:31:17;;;;;;;4.72;2.78;;;31.60;89.60;;;;;;5070537;28;20060;-74
2022/08/04 11:33:57;;;;;;;4.60;2.78;;;31.30;90.20;;;;;;5054904;28;20028;-74
2022/08/04 11:36:29;;;;;;;6.32;3.42;;;31.90;91.90;;;;;;5067341;28;20070;-73
2022/08/04 11:39:23;;;;;;;4.65;3.00;;;32.20;91.40;;;;;;5055123;28;20029;-74
2022/08/04 11:42:08;;;;;;;4.65;2.92;;;32.30;91.70;;;;;;5059309;28;20552;-74
2022/08/04 11:44:58;;;;;;;5.40;3.10;;;32.40;91.30;;;;;;5063519;28;20473;-74
2022/08/04 11:47:40;;;;;;;4.95;2.88;;;32.20;90.60;;;;;;5061083;28;20063;-74
2022/08/04 11:50:19;;;;;;;5.18;2.75;;;32.10;91.00;;;;;;5060246;28;20133;-74
2022/08/04 11:52:47;;;;;;;6.05;3.05;;;32.20;90.60;;;;;;5055661;28;20150;-74
2022/08/04 11:55:18;;;;;;;3.28;2.28;;;32.10;89.10;;;;;;5059715;28;20433;-74
2022/08/04 11:57:44;;;;;;;5.68;2.72;;;32.00;90.50;;;;;;5054722;28;20016;-74
2022/08/04 12:00:13;;;;;;;6.13;2.70;;;31.90;90.10;;;;;;5061632;28;20036;-74
2022/08/04 12:02:50;;;;;;;6.65;2.55;;;32.10;89.60;;;;;;5056504;28;20106;-75
2022/08/04 12:05:20;;;;;;;4.20;2.80;;;31.90;88.50;;;;;;5074298;28;20426;-75
2022/08/04 12:07:49;;;;;;;3.78;2.40;;;32.30;90.00;;;;;;5061468;28;20032;-75
2022/08/04 12:10:42;;;;;;;7.75;2.33;;;32.70;90.10;;;;;;5065586;28;20397;-74
2022/08/04 12:13:15;;;;;;;2.80;1.90;;;33.00;89.60;;;;;;5055679;28;20482;-74
2022/08/04 12:16:17;;;;;;;4.30;2.65;;;32.90;88.00;;;;;;5045106;28;20029;-74
2022/08/04 12:18:55;;;;;;;3.53;2.35;;;33.00;90.00;;;;;;5049020;28;20036;-74
2022/08/04 12:21:41;;;;;;;5.57;2.60;;;33.10;86.60;;;;;;5050354;28;20021;-75
2022/08/04 12:24:17;;;;;;;4.75;2.60;;;33.10;88.70;;;;;;5049739;28;20045;-76
2022/08/04 12:26:58;;;;;;;4.18;2.50;;;33.50;90.00;;;;;;5063625;28;20035;-75
2022/08/04 12:29:26;;;;;;;5.63;2.50;;;33.60;86.00;;;;;;5055321;28;20028;-75
2022/08/04 12:31:57;;;;;;;4.03;2.45;;;33.80;86.90;;;;;;5052793;28;20578;-75
2022/08/04 12:34:53;;;;;;;5.15;2.63;;;33.70;85.00;;;;;;5060926;28;20533;-75
2022/08/04 12:38:03;;;;;;;4.80;2.90;;;33.70;85.20;;;;;;5047678;28;20353;-73
2022/08/04 12:40:50;;;;;;;3.55;2.38;;;33.90;84.40;;;;;;5026827;28;20045;-76
2022/08/04 12:43:18;;;;;;;4.68;2.38;;;34.00;84.10;;;;;;5038282;28;20044;-74
2022/08/04 12:45:50;;;;;;;7.03;2.60;;;33.80;84.40;;;;;;5048459;28;20033;-74
2022/08/04 12:48:17;;;;;;;5.05;2.22;;;33.80;84.50;;;;;;5061114;28;20952;-73
2022/08/04 12:50:52;;;;;;;4.15;2.28;;;34.00;85.00;;;;;;5047542;28;20033;-75
2022/08/04 12:53:22;;;;;;;4.95;2.30;;;34.00;84.80;;;;;;5047674;28;20529;-74
2022/08/04 12:55:50;;;;;;;6.22;2.60;;;34.00;83.70;;;;;;5048835;28;20028;-74
2022/08/04 12:58:18;;;;;;;7.05;2.22;;;34.10;85.30;;;;;;5043826;28;20596;-75
2022/08/04 13:00:54;;;;;;;3.35;2.00;;;34.10;84.50;;;;;;5048533;28;20525;-74
2022/08/04 13:03:23;;;;;;;4.63;2.20;;;34.20;85.80;;;;;;5048196;28;20032;-75
2022/08/04 13:05:53;;;;;;;4.70;2.10;;;34.10;84.40;;;;;;5044784;28;20021;-75
2022/08/04 13:08:20;;;;;;;4.97;2.20;;;34.20;84.90;;;;;;5045578;28;20133;-75
2022/08/04 13:10:49;;;;;;;4.30;2.55;;;34.20;83.90;;;;;;5045416;28;20123;-75
2022/08/04 13:13:20;;;;;;;4.13;2.60;;;34.20;83.60;;;;;;5050318;28;20040;-74
2022/08/04 13:16:01;;;;;;;5.32;2.53;;;34.30;84.70;;;;;;5044555;28;20071;-74
2022/08/04 13:18:29;;;;;;;4.00;2.47;;;34.20;83.80;;;;;;5045012;28;20364;-75
2022/08/04 13:21:06;;;;;;;5.90;2.83;;;34.30;83.60;;;;;;5045476;28;20033;-75
2022/08/04 13:23:32;;;;;;;5.57;2.50;;;34.30;83.00;;;;;;5045093;28;20095;-74
2022/08/04 13:25:58;;;;;;;3.22;2.20;;;34.40;84.90;;;;;;5058179;28;20029;-74
2022/08/04 13:28:26;;;;;;;4.93;2.53;;;34.40;83.30;;;;;;5058006;28;20024;-74
2022/08/04 13:31:05;;;;;;;3.65;2.47;;;34.20;83.30;;;;;;5058121;28;20040;-74
2022/08/04 13:33:37;;;;;;;8.52;3.00;;;34.30;84.50;;;;;;5045347;28;20558;-74
2022/08/04 13:36:06;;;;;;;7.53;2.13;;;34.50;82.60;;;;;;5045075;28;20037;-74
2022/08/04 13:38:33;;;;;;;3.63;2.42;;;34.20;82.70;;;;;;5045144;28;20493;-73
2022/08/04 13:41:02;;;;;;;8.27;2.30;;;34.10;82.40;;;;;;5045066;28;20098;-73